sensor_id;sensor_type;location;lat;lon;timestamp;P1;durP1;ratioP1;P2;durP2;ratioP2
6689;SDS011;3382;51.576;8.076;2023-04-21T00:00:04;27.40;;;18.53;;
6689;SDS011;3382;51.576;8.076;2023-04-21T00:02:33;25.93;;;19.33;;
6689;SDS011;3382;51.576;8.076;2023-04-21T00:05:03;25.63;;;19.67;;
6689;SDS011;3382;51.576;8.076;2023-04-21T00:07:31;24.67;;;18.23;;
6689;SDS011;3382;51.576;8.076;2023-04-21T00:09:58;26.10;;;18.87;;
6689;SDS011;3382;51.576;8.076;2023-04-21T00:12:23;25.93;;;18.13;;
6689;SDS011;3382;51.576;8.076;2023-04-21T00:14:49;23.23;;;17.83;;
6689;SDS011;3382;51.576;8.076;2023-04-21T00:17:14;26.03;;;19.73;;
6689;SDS011;3382;51.576;8.076;2023-04-21T00:19:40;24.13;;;17.90;;
6689;SDS011;3382;51.576;8.076;2023-04-21T00:22:06;25.57;;;18.30;;
6689;SDS011;3382;51.576;8.076;2023-04-21T00:24:36;25.53;;;18.33;;
6689;SDS011;3382;51.576;8.076;2023-04-21T00:27:01;24.93;;;18.47;;
6689;SDS011;3382;51.576;8.076;2023-04-21T00:29:27;26.33;;;19.23;;
6689;SDS011;3382;51.576;8.076;2023-04-21T00:31:53;26.37;;;18.27;;
6689;SDS011;3382;51.576;8.076;2023-04-21T00:34:18;26.17;;;19.20;;
6689;SDS011;3382;51.576;8.076;2023-04-21T00:36:44;24.17;;;18.53;;
6689;SDS011;3382;51.576;8.076;2023-04-21T00:39:10;24.27;;;18.57;;
6689;SDS011;3382;51.576;8.076;2023-04-21T00:41:35;31.10;;;18.00;;
6689;SDS011;3382;51.576;8.076;2023-04-21T00:44:03;26.73;;;20.03;;
6689;SDS011;3382;51.576;8.076;2023-04-21T00:46:29;25.33;;;19.13;;
6689;SDS011;3382;51.576;8.076;2023-04-21T00:48:55;24.87;;;19.63;;
6689;SDS011;3382;51.576;8.076;2023-04-21T00:51:21;26.97;;;19.20;;
6689;SDS011;3382;51.576;8.076;2023-04-21T00:53:47;24.63;;;19.10;;
6689;SDS011;3382;51.576;8.076;2023-04-21T00:56:15;24.33;;;18.27;;
6689;SDS011;3382;51.576;8.076;2023-04-21T00:58:42;26.20;;;18.00;;
6689;SDS011;3382;51.576;8.076;2023-04-21T01:01:09;25.80;;;18.40;;
6689;SDS011;3382;51.576;8.076;2023-04-21T01:03:34;25.47;;;19.07;;
6689;SDS011;3382;51.576;8.076;2023-04-21T01:06:00;27.30;;;19.37;;
6689;SDS011;3382;51.576;8.076;2023-04-21T01:08:26;25.47;;;18.57;;
6689;SDS011;3382;51.576;8.076;2023-04-21T01:10:52;23.77;;;18.57;;
6689;SDS011;3382;51.576;8.076;2023-04-21T01:13:20;25.87;;;18.60;;
6689;SDS011;3382;51.576;8.076;2023-04-21T01:15:46;26.27;;;19.00;;
6689;SDS011;3382;51.576;8.076;2023-04-21T01:18:12;26.23;;;18.33;;
6689;SDS011;3382;51.576;8.076;2023-04-21T01:20:38;27.43;;;18.63;;
6689;SDS011;3382;51.576;8.076;2023-04-21T01:23:04;27.53;;;19.60;;
6689;SDS011;3382;51.576;8.076;2023-04-21T01:25:31;27.17;;;20.13;;
6689;SDS011;3382;51.576;8.076;2023-04-21T01:27:56;23.73;;;19.27;;
6689;SDS011;3382;51.576;8.076;2023-04-21T01:30:22;27.27;;;19.47;;
6689;SDS011;3382;51.576;8.076;2023-04-21T01:32:48;28.37;;;19.00;;
6689;SDS011;3382;51.576;8.076;2023-04-21T01:35:13;23.77;;;18.50;;
6689;SDS011;3382;51.576;8.076;2023-04-21T01:37:39;25.27;;;19.10;;
6689;SDS011;3382;51.576;8.076;2023-04-21T01:40:05;24.90;;;18.80;;
6689;SDS011;3382;51.576;8.076;2023-04-21T01:42:34;23.80;;;19.03;;
6689;SDS011;3382;51.576;8.076;2023-04-21T01:45:02;27.57;;;18.77;;
6689;SDS011;3382;51.576;8.076;2023-04-21T01:47:28;25.77;;;19.13;;
6689;SDS011;3382;51.576;8.076;2023-04-21T01:49:53;26.53;;;19.27;;
6689;SDS011;3382;51.576;8.076;2023-04-21T01:52:19;27.27;;;19.93;;
6689;SDS011;3382;51.576;8.076;2023-04-21T01:54:45;24.93;;;18.13;;
6689;SDS011;3382;51.576;8.076;2023-04-21T01:57:11;25.70;;;18.93;;
6689;SDS011;3382;51.576;8.076;2023-04-21T01:59:36;26.10;;;19.30;;
6689;SDS011;3382;51.576;8.076;2023-04-21T02:02:03;28.00;;;20.27;;
6689;SDS011;3382;51.576;8.076;2023-04-21T02:04:28;29.00;;;19.20;;
6689;SDS011;3382;51.576;8.076;2023-04-21T02:06:54;28.30;;;20.07;;
6689;SDS011;3382;51.576;8.076;2023-04-21T02:09:19;27.80;;;19.33;;
6689;SDS011;3382;51.576;8.076;2023-04-21T02:11:45;23.50;;;18.40;;
6689;SDS011;3382;51.576;8.076;2023-04-21T02:14:10;24.57;;;18.93;;
6689;SDS011;3382;51.576;8.076;2023-04-21T02:16:36;23.77;;;19.10;;
6689;SDS011;3382;51.576;8.076;2023-04-21T02:19:02;25.87;;;19.50;;
6689;SDS011;3382;51.576;8.076;2023-04-21T02:21:27;27.20;;;19.63;;
6689;SDS011;3382;51.576;8.076;2023-04-21T02:23:53;26.77;;;19.57;;
6689;SDS011;3382;51.576;8.076;2023-04-21T02:26:19;25.47;;;18.53;;
6689;SDS011;3382;51.576;8.076;2023-04-21T02:28:45;24.93;;;19.73;;
6689;SDS011;3382;51.576;8.076;2023-04-21T02:31:14;23.97;;;18.50;;
6689;SDS011;3382;51.576;8.076;2023-04-21T02:33:40;27.73;;;19.50;;
6689;SDS011;3382;51.576;8.076;2023-04-21T02:36:06;24.83;;;18.23;;
6689;SDS011;3382;51.576;8.076;2023-04-21T02:38:31;25.93;;;19.13;;
6689;SDS011;3382;51.576;8.076;2023-04-21T02:40:57;29.63;;;19.77;;
6689;SDS011;3382;51.576;8.076;2023-04-21T02:43:23;28.43;;;19.50;;
6689;SDS011;3382;51.576;8.076;2023-04-21T02:45:48;26.00;;;19.57;;
6689;SDS011;3382;51.576;8.076;2023-04-21T02:48:14;25.93;;;20.07;;
6689;SDS011;3382;51.576;8.076;2023-04-21T02:50:41;25.77;;;18.77;;
6689;SDS011;3382;51.576;8.076;2023-04-21T02:53:07;28.47;;;20.13;;
6689;SDS011;3382;51.576;8.076;2023-04-21T02:55:32;26.40;;;19.57;;
6689;SDS011;3382;51.576;8.076;2023-04-21T02:57:58;27.77;;;19.97;;
6689;SDS011;3382;51.576;8.076;2023-04-21T03:00:23;24.47;;;19.63;;
6689;SDS011;3382;51.576;8.076;2023-04-21T03:02:49;26.50;;;19.77;;
6689;SDS011;3382;51.576;8.076;2023-04-21T03:05:17;26.20;;;19.80;;
6689;SDS011;3382;51.576;8.076;2023-04-21T03:07:43;28.13;;;19.30;;
6689;SDS011;3382;51.576;8.076;2023-04-21T03:10:09;27.17;;;19.67;;
6689;SDS011;3382;51.576;8.076;2023-04-21T03:12:35;24.23;;;19.10;;
6689;SDS011;3382;51.576;8.076;2023-04-21T03:15:01;24.70;;;18.57;;
6689;SDS011;3382;51.576;8.076;2023-04-21T03:17:27;25.10;;;18.47;;
6689;SDS011;3382;51.576;8.076;2023-04-21T03:19:53;27.27;;;19.03;;
6689;SDS011;3382;51.576;8.076;2023-04-21T03:22:18;26.83;;;18.97;;
6689;SDS011;3382;51.576;8.076;2023-04-21T03:24:44;23.67;;;18.60;;
6689;SDS011;3382;51.576;8.076;2023-04-21T03:27:10;24.67;;;19.27;;
6689;SDS011;3382;51.576;8.076;2023-04-21T03:29:35;28.67;;;20.20;;
6689;SDS011;3382;51.576;8.076;2023-04-21T03:32:01;25.07;;;18.93;;
6689;SDS011;3382;51.576;8.076;2023-04-21T03:34:27;23.77;;;18.17;;
6689;SDS011;3382;51.576;8.076;2023-04-21T03:36:53;25.43;;;19.37;;
6689;SDS011;3382;51.576;8.076;2023-04-21T03:39:19;25.33;;;18.70;;
6689;SDS011;3382;51.576;8.076;2023-04-21T03:41:45;24.97;;;18.97;;
6689;SDS011;3382;51.576;8.076;2023-04-21T03:44:11;24.93;;;18.57;;
6689;SDS011;3382;51.576;8.076;2023-04-21T03:46:37;27.60;;;19.80;;
6689;SDS011;3382;51.576;8.076;2023-04-21T03:49:02;26.93;;;19.37;;
6689;SDS011;3382;51.576;8.076;2023-04-21T03:51:28;26.13;;;20.00;;
6689;SDS011;3382;51.576;8.076;2023-04-21T03:53:53;25.10;;;18.97;;
6689;SDS011;3382;51.576;8.076;2023-04-21T03:56:19;25.57;;;19.27;;
6689;SDS011;3382;51.576;8.076;2023-04-21T03:58:44;25.40;;;19.37;;
6689;SDS011;3382;51.576;8.076;2023-04-21T04:01:10;26.40;;;19.70;;
6689;SDS011;3382;51.576;8.076;2023-04-21T04:03:35;24.50;;;19.23;;
6689;SDS011;3382;51.576;8.076;2023-04-21T04:06:01;26.33;;;19.07;;
6689;SDS011;3382;51.576;8.076;2023-04-21T04:08:28;26.83;;;20.03;;
6689;SDS011;3382;51.576;8.076;2023-04-21T04:10:54;27.13;;;20.23;;
6689;SDS011;3382;51.576;8.076;2023-04-21T04:13:20;26.97;;;19.40;;
6689;SDS011;3382;51.576;8.076;2023-04-21T04:15:46;26.57;;;19.67;;
6689;SDS011;3382;51.576;8.076;2023-04-21T04:18:12;35.20;;;20.43;;
6689;SDS011;3382;51.576;8.076;2023-04-21T04:20:38;27.93;;;20.33;;
6689;SDS011;3382;51.576;8.076;2023-04-21T04:23:03;26.10;;;20.43;;
6689;SDS011;3382;51.576;8.076;2023-04-21T04:25:29;24.20;;;19.40;;
6689;SDS011;3382;51.576;8.076;2023-04-21T04:27:55;28.33;;;19.20;;
6689;SDS011;3382;51.576;8.076;2023-04-21T04:30:21;26.37;;;19.27;;
6689;SDS011;3382;51.576;8.076;2023-04-21T04:32:47;27.63;;;21.53;;
6689;SDS011;3382;51.576;8.076;2023-04-21T04:35:13;27.93;;;21.23;;
6689;SDS011;3382;51.576;8.076;2023-04-21T04:37:40;29.33;;;21.70;;
6689;SDS011;3382;51.576;8.076;2023-04-21T04:40:06;29.30;;;20.90;;
6689;SDS011;3382;51.576;8.076;2023-04-21T04:42:36;22.13;;;16.63;;
6689;SDS011;3382;51.576;8.076;2023-04-21T04:45:03;30.60;;;20.13;;
6689;SDS011;3382;51.576;8.076;2023-04-21T04:47:32;25.93;;;19.70;;
6689;SDS011;3382;51.576;8.076;2023-04-21T04:49:58;27.73;;;20.00;;
6689;SDS011;3382;51.576;8.076;2023-04-21T04:52:23;28.53;;;19.60;;
6689;SDS011;3382;51.576;8.076;2023-04-21T04:54:49;28.37;;;21.37;;
6689;SDS011;3382;51.576;8.076;2023-04-21T04:57:15;31.50;;;20.47;;
6689;SDS011;3382;51.576;8.076;2023-04-21T04:59:40;27.50;;;20.17;;
6689;SDS011;3382;51.576;8.076;2023-04-21T05:02:06;28.13;;;19.47;;
6689;SDS011;3382;51.576;8.076;2023-04-21T05:04:32;30.67;;;20.10;;
6689;SDS011;3382;51.576;8.076;2023-04-21T05:06:58;25.23;;;19.40;;
6689;SDS011;3382;51.576;8.076;2023-04-21T05:09:24;27.20;;;20.20;;
6689;SDS011;3382;51.576;8.076;2023-04-21T05:11:50;29.47;;;21.90;;
6689;SDS011;3382;51.576;8.076;2023-04-21T05:14:15;26.90;;;19.77;;
6689;SDS011;3382;51.576;8.076;2023-04-21T05:16:42;25.90;;;19.13;;
6689;SDS011;3382;51.576;8.076;2023-04-21T05:19:08;27.00;;;19.60;;
6689;SDS011;3382;51.576;8.076;2023-04-21T05:21:33;25.30;;;20.83;;
6689;SDS011;3382;51.576;8.076;2023-04-21T05:23:59;25.13;;;19.17;;
6689;SDS011;3382;51.576;8.076;2023-04-21T05:26:25;27.47;;;19.93;;
6689;SDS011;3382;51.576;8.076;2023-04-21T05:28:52;24.87;;;19.33;;
6689;SDS011;3382;51.576;8.076;2023-04-21T05:31:18;26.53;;;19.00;;
6689;SDS011;3382;51.576;8.076;2023-04-21T05:33:44;26.40;;;18.83;;
6689;SDS011;3382;51.576;8.076;2023-04-21T05:36:09;31.83;;;13.13;;
6689;SDS011;3382;51.576;8.076;2023-04-21T05:38:35;23.50;;;15.80;;
6689;SDS011;3382;51.576;8.076;2023-04-21T05:41:01;25.57;;;19.50;;
6689;SDS011;3382;51.576;8.076;2023-04-21T05:43:28;26.10;;;17.83;;
6689;SDS011;3382;51.576;8.076;2023-04-21T05:45:57;30.53;;;18.83;;
6689;SDS011;3382;51.576;8.076;2023-04-21T05:48:23;29.27;;;19.30;;
6689;SDS011;3382;51.576;8.076;2023-04-21T05:50:48;30.47;;;19.33;;
6689;SDS011;3382;51.576;8.076;2023-04-21T05:53:14;25.77;;;18.87;;
6689;SDS011;3382;51.576;8.076;2023-04-21T05:55:40;25.90;;;19.30;;
6689;SDS011;3382;51.576;8.076;2023-04-21T05:58:05;24.67;;;18.90;;
6689;SDS011;3382;51.576;8.076;2023-04-21T06:00:31;26.47;;;17.77;;
6689;SDS011;3382;51.576;8.076;2023-04-21T06:02:56;27.50;;;19.07;;
6689;SDS011;3382;51.576;8.076;2023-04-21T06:05:22;30.63;;;18.43;;
6689;SDS011;3382;51.576;8.076;2023-04-21T06:07:48;26.00;;;18.80;;
6689;SDS011;3382;51.576;8.076;2023-04-21T06:10:13;23.60;;;18.30;;
6689;SDS011;3382;51.576;8.076;2023-04-21T06:12:39;24.43;;;18.53;;
6689;SDS011;3382;51.576;8.076;2023-04-21T06:15:05;24.03;;;18.07;;
6689;SDS011;3382;51.576;8.076;2023-04-21T06:17:31;25.27;;;18.40;;
6689;SDS011;3382;51.576;8.076;2023-04-21T06:19:57;26.20;;;18.27;;
6689;SDS011;3382;51.576;8.076;2023-04-21T06:22:22;25.60;;;18.93;;
6689;SDS011;3382;51.576;8.076;2023-04-21T06:24:48;22.57;;;18.10;;
6689;SDS011;3382;51.576;8.076;2023-04-21T06:27:14;24.77;;;17.27;;
6689;SDS011;3382;51.576;8.076;2023-04-21T06:29:40;21.47;;;17.67;;
6689;SDS011;3382;51.576;8.076;2023-04-21T06:32:06;21.93;;;17.43;;
6689;SDS011;3382;51.576;8.076;2023-04-21T06:34:32;23.43;;;17.97;;
6689;SDS011;3382;51.576;8.076;2023-04-21T06:36:58;22.20;;;17.07;;
6689;SDS011;3382;51.576;8.076;2023-04-21T06:39:23;28.03;;;17.87;;
6689;SDS011;3382;51.576;8.076;2023-04-21T06:41:49;21.97;;;17.10;;
6689;SDS011;3382;51.576;8.076;2023-04-21T06:44:15;24.20;;;18.83;;
6689;SDS011;3382;51.576;8.076;2023-04-21T06:46:40;25.53;;;18.63;;
6689;SDS011;3382;51.576;8.076;2023-04-21T06:49:06;26.87;;;18.60;;
6689;SDS011;3382;51.576;8.076;2023-04-21T06:51:32;24.20;;;18.73;;
6689;SDS011;3382;51.576;8.076;2023-04-21T06:53:58;23.43;;;18.20;;
6689;SDS011;3382;51.576;8.076;2023-04-21T06:56:25;23.70;;;18.63;;
6689;SDS011;3382;51.576;8.076;2023-04-21T06:58:51;27.83;;;19.23;;
6689;SDS011;3382;51.576;8.076;2023-04-21T07:01:17;28.77;;;20.57;;
6689;SDS011;3382;51.576;8.076;2023-04-21T07:03:43;22.50;;;18.90;;
6689;SDS011;3382;51.576;8.076;2023-04-21T07:06:09;24.60;;;18.27;;
6689;SDS011;3382;51.576;8.076;2023-04-21T07:08:35;26.70;;;19.30;;
6689;SDS011;3382;51.576;8.076;2023-04-21T07:11:01;27.13;;;18.63;;
6689;SDS011;3382;51.576;8.076;2023-04-21T07:13:27;25.03;;;18.67;;
6689;SDS011;3382;51.576;8.076;2023-04-21T07:15:52;22.83;;;18.00;;
6689;SDS011;3382;51.576;8.076;2023-04-21T07:18:18;28.67;;;18.60;;
6689;SDS011;3382;51.576;8.076;2023-04-21T07:20:44;26.00;;;18.00;;
6689;SDS011;3382;51.576;8.076;2023-04-21T07:23:10;23.63;;;17.27;;
6689;SDS011;3382;51.576;8.076;2023-04-21T07:25:35;24.27;;;17.60;;
6689;SDS011;3382;51.576;8.076;2023-04-21T07:28:01;28.47;;;17.40;;
6689;SDS011;3382;51.576;8.076;2023-04-21T07:30:28;21.37;;;16.97;;
6689;SDS011;3382;51.576;8.076;2023-04-21T07:32:54;23.23;;;16.80;;
6689;SDS011;3382;51.576;8.076;2023-04-21T07:35:20;22.67;;;16.47;;
6689;SDS011;3382;51.576;8.076;2023-04-21T07:37:46;26.60;;;19.07;;
6689;SDS011;3382;51.576;8.076;2023-04-21T07:40:11;23.93;;;17.93;;
6689;SDS011;3382;51.576;8.076;2023-04-21T07:42:38;24.90;;;16.77;;
6689;SDS011;3382;51.576;8.076;2023-04-21T07:45:03;25.47;;;16.97;;
6689;SDS011;3382;51.576;8.076;2023-04-21T07:47:30;22.47;;;16.53;;
6689;SDS011;3382;51.576;8.076;2023-04-21T07:49:55;22.27;;;17.43;;
6689;SDS011;3382;51.576;8.076;2023-04-21T07:52:21;23.40;;;17.87;;
6689;SDS011;3382;51.576;8.076;2023-04-21T07:54:47;24.30;;;18.67;;
6689;SDS011;3382;51.576;8.076;2023-04-21T07:57:13;22.10;;;16.43;;
6689;SDS011;3382;51.576;8.076;2023-04-21T07:59:39;22.63;;;16.97;;
6689;SDS011;3382;51.576;8.076;2023-04-21T08:02:04;22.37;;;16.53;;
6689;SDS011;3382;51.576;8.076;2023-04-21T08:04:30;21.83;;;17.67;;
6689;SDS011;3382;51.576;8.076;2023-04-21T08:06:56;22.20;;;17.13;;
6689;SDS011;3382;51.576;8.076;2023-04-21T08:09:22;22.07;;;17.00;;
6689;SDS011;3382;51.576;8.076;2023-04-21T08:11:48;22.00;;;15.93;;
6689;SDS011;3382;51.576;8.076;2023-04-21T08:14:13;22.80;;;17.33;;
6689;SDS011;3382;51.576;8.076;2023-04-21T08:16:39;21.17;;;16.83;;
6689;SDS011;3382;51.576;8.076;2023-04-21T08:19:06;23.70;;;16.60;;
6689;SDS011;3382;51.576;8.076;2023-04-21T08:21:32;28.47;;;17.50;;
6689;SDS011;3382;51.576;8.076;2023-04-21T08:23:58;24.27;;;16.67;;
6689;SDS011;3382;51.576;8.076;2023-04-21T08:26:24;24.63;;;17.63;;
6689;SDS011;3382;51.576;8.076;2023-04-21T08:28:50;25.37;;;17.07;;
6689;SDS011;3382;51.576;8.076;2023-04-21T08:31:17;21.83;;;17.00;;
6689;SDS011;3382;51.576;8.076;2023-04-21T08:33:43;22.37;;;16.07;;
6689;SDS011;3382;51.576;8.076;2023-04-21T08:36:09;21.17;;;16.27;;
6689;SDS011;3382;51.576;8.076;2023-04-21T08:38:36;23.63;;;16.63;;
6689;SDS011;3382;51.576;8.076;2023-04-21T08:41:03;21.23;;;17.03;;
6689;SDS011;3382;51.576;8.076;2023-04-21T08:43:29;23.60;;;18.23;;
6689;SDS011;3382;51.576;8.076;2023-04-21T08:45:55;21.63;;;17.03;;
6689;SDS011;3382;51.576;8.076;2023-04-21T08:48:21;20.83;;;16.40;;
6689;SDS011;3382;51.576;8.076;2023-04-21T08:50:48;26.07;;;16.83;;
6689;SDS011;3382;51.576;8.076;2023-04-21T08:53:15;26.20;;;17.00;;
6689;SDS011;3382;51.576;8.076;2023-04-21T08:55:41;25.03;;;16.50;;
6689;SDS011;3382;51.576;8.076;2023-04-21T08:58:08;21.93;;;17.60;;
6689;SDS011;3382;51.576;8.076;2023-04-21T09:00:34;23.07;;;17.23;;
6689;SDS011;3382;51.576;8.076;2023-04-21T09:03:00;23.13;;;16.70;;
6689;SDS011;3382;51.576;8.076;2023-04-21T09:05:30;21.47;;;16.43;;
6689;SDS011;3382;51.576;8.076;2023-04-21T09:08:12;22.27;;;15.87;;
6689;SDS011;3382;51.576;8.076;2023-04-21T09:13:09;17.50;;;14.20;;
6689;SDS011;3382;51.576;8.076;2023-04-21T09:15:38;19.70;;;14.63;;
6689;SDS011;3382;51.576;8.076;2023-04-21T09:18:26;19.90;;;15.40;;
6689;SDS011;3382;51.576;8.076;2023-04-21T09:21:11;24.37;;;15.57;;
6689;SDS011;3382;51.576;8.076;2023-04-21T09:23:41;20.13;;;14.97;;
6689;SDS011;3382;51.576;8.076;2023-04-21T09:26:07;21.33;;;15.43;;
6689;SDS011;3382;51.576;8.076;2023-04-21T09:28:33;18.60;;;15.50;;
6689;SDS011;3382;51.576;8.076;2023-04-21T09:30:59;21.30;;;15.97;;
6689;SDS011;3382;51.576;8.076;2023-04-21T09:33:25;20.20;;;15.33;;
6689;SDS011;3382;51.576;8.076;2023-04-21T09:35:50;21.07;;;16.13;;
6689;SDS011;3382;51.576;8.076;2023-04-21T09:38:17;20.90;;;15.47;;
6689;SDS011;3382;51.576;8.076;2023-04-21T09:40:55;19.40;;;15.23;;
6689;SDS011;3382;51.576;8.076;2023-04-21T09:43:21;17.83;;;15.00;;
6689;SDS011;3382;51.576;8.076;2023-04-21T09:45:47;19.43;;;13.97;;
6689;SDS011;3382;51.576;8.076;2023-04-21T09:48:13;17.53;;;13.53;;
6689;SDS011;3382;51.576;8.076;2023-04-21T09:50:41;18.03;;;13.47;;
6689;SDS011;3382;51.576;8.076;2023-04-21T09:53:10;18.17;;;12.03;;
6689;SDS011;3382;51.576;8.076;2023-04-21T09:55:39;16.97;;;12.80;;
6689;SDS011;3382;51.576;8.076;2023-04-21T09:58:05;17.10;;;12.53;;
6689;SDS011;3382;51.576;8.076;2023-04-21T10:00:33;16.80;;;12.43;;
6689;SDS011;3382;51.576;8.076;2023-04-21T10:03:03;17.80;;;13.37;;
6689;SDS011;3382;51.576;8.076;2023-04-21T10:05:34;16.00;;;12.40;;
6689;SDS011;3382;51.576;8.076;2023-04-21T10:08:00;16.03;;;12.43;;
6689;SDS011;3382;51.576;8.076;2023-04-21T10:10:27;15.53;;;12.67;;
6689;SDS011;3382;51.576;8.076;2023-04-21T10:12:55;14.53;;;11.40;;
6689;SDS011;3382;51.576;8.076;2023-04-21T10:15:31;16.40;;;12.43;;
6689;SDS011;3382;51.576;8.076;2023-04-21T10:36:31;16.53;;;12.37;;
6689;SDS011;3382;51.576;8.076;2023-04-21T10:39:01;13.40;;;10.57;;
6689;SDS011;3382;51.576;8.076;2023-04-21T10:41:34;17.20;;;12.30;;
6689;SDS011;3382;51.576;8.076;2023-04-21T10:46:34;14.93;;;12.20;;
6689;SDS011;3382;51.576;8.076;2023-04-21T10:49:08;15.87;;;12.40;;
6689;SDS011;3382;51.576;8.076;2023-04-21T10:54:23;16.17;;;12.33;;
6689;SDS011;3382;51.576;8.076;2023-04-21T10:57:01;16.67;;;12.90;;
6689;SDS011;3382;51.576;8.076;2023-04-21T10:59:32;15.67;;;12.43;;
6689;SDS011;3382;51.576;8.076;2023-04-21T11:01:59;14.13;;;11.67;;
6689;SDS011;3382;51.576;8.076;2023-04-21T11:04:32;13.40;;;11.70;;
6689;SDS011;3382;51.576;8.076;2023-04-21T11:09:37;14.03;;;11.60;;
6689;SDS011;3382;51.576;8.076;2023-04-21T11:12:05;16.27;;;11.77;;
6689;SDS011;3382;51.576;8.076;2023-04-21T11:14:33;14.43;;;10.90;;
6689;SDS011;3382;51.576;8.076;2023-04-21T11:17:01;13.67;;;11.67;;
6689;SDS011;3382;51.576;8.076;2023-04-21T11:19:27;13.83;;;10.77;;
6689;SDS011;3382;51.576;8.076;2023-04-21T11:21:53;14.73;;;10.63;;
6689;SDS011;3382;51.576;8.076;2023-04-21T11:24:21;12.00;;;10.17;;
6689;SDS011;3382;51.576;8.076;2023-04-21T11:26:47;14.13;;;10.33;;
6689;SDS011;3382;51.576;8.076;2023-04-21T11:29:13;12.77;;;10.23;;
6689;SDS011;3382;51.576;8.076;2023-04-21T11:31:39;14.23;;;10.00;;
6689;SDS011;3382;51.576;8.076;2023-04-21T11:34:06;14.47;;;10.33;;
6689;SDS011;3382;51.576;8.076;2023-04-21T11:36:36;13.60;;;9.53;;
6689;SDS011;3382;51.576;8.076;2023-04-21T11:39:06;17.70;;;11.13;;
6689;SDS011;3382;51.576;8.076;2023-04-21T11:41:33;13.13;;;9.97;;
6689;SDS011;3382;51.576;8.076;2023-04-21T11:47:18;14.13;;;10.20;;
6689;SDS011;3382;51.576;8.076;2023-04-21T11:49:59;13.90;;;9.63;;
6689;SDS011;3382;51.576;8.076;2023-04-21T11:52:29;12.17;;;9.57;;
6689;SDS011;3382;51.576;8.076;2023-04-21T11:55:11;15.33;;;9.70;;
6689;SDS011;3382;51.576;8.076;2023-04-21T11:57:42;13.80;;;9.70;;
6689;SDS011;3382;51.576;8.076;2023-04-21T12:00:09;13.97;;;10.50;;
6689;SDS011;3382;51.576;8.076;2023-04-21T12:02:37;13.00;;;9.47;;
6689;SDS011;3382;51.576;8.076;2023-04-21T12:05:04;12.47;;;9.43;;
6689;SDS011;3382;51.576;8.076;2023-04-21T12:07:34;14.50;;;9.20;;
6689;SDS011;3382;51.576;8.076;2023-04-21T12:10:12;14.87;;;9.50;;
6689;SDS011;3382;51.576;8.076;2023-04-21T12:12:39;12.40;;;8.63;;
6689;SDS011;3382;51.576;8.076;2023-04-21T12:15:06;11.40;;;8.70;;
6689;SDS011;3382;51.576;8.076;2023-04-21T12:17:37;13.27;;;6.77;;
6689;SDS011;3382;51.576;8.076;2023-04-21T12:20:09;12.87;;;8.53;;
6689;SDS011;3382;51.576;8.076;2023-04-21T12:22:36;10.67;;;8.07;;
6689;SDS011;3382;51.576;8.076;2023-04-21T12:25:01;15.90;;;11.17;;
6689;SDS011;3382;51.576;8.076;2023-04-21T12:27:28;16.57;;;11.63;;
6689;SDS011;3382;51.576;8.076;2023-04-21T12:29:54;13.83;;;11.33;;
6689;SDS011;3382;51.576;8.076;2023-04-21T12:32:20;16.23;;;12.17;;
6689;SDS011;3382;51.576;8.076;2023-04-21T12:34:46;14.43;;;11.03;;
6689;SDS011;3382;51.576;8.076;2023-04-21T12:37:11;15.53;;;11.03;;
6689;SDS011;3382;51.576;8.076;2023-04-21T12:39:37;17.47;;;10.70;;
6689;SDS011;3382;51.576;8.076;2023-04-21T12:42:02;13.73;;;10.63;;
6689;SDS011;3382;51.576;8.076;2023-04-21T12:44:28;12.77;;;10.10;;
6689;SDS011;3382;51.576;8.076;2023-04-21T12:46:54;11.90;;;8.67;;
6689;SDS011;3382;51.576;8.076;2023-04-21T12:49:21;10.27;;;5.23;;
6689;SDS011;3382;51.576;8.076;2023-04-21T12:51:47;10.53;;;6.50;;
6689;SDS011;3382;51.576;8.076;2023-04-21T12:54:13;9.87;;;5.47;;
6689;SDS011;3382;51.576;8.076;2023-04-21T12:56:39;14.93;;;5.57;;
6689;SDS011;3382;51.576;8.076;2023-04-21T12:59:06;15.23;;;9.83;;
6689;SDS011;3382;51.576;8.076;2023-04-21T13:01:33;13.53;;;11.47;;
6689;SDS011;3382;51.576;8.076;2023-04-21T13:03:59;13.03;;;6.10;;
6689;SDS011;3382;51.576;8.076;2023-04-21T13:06:25;13.27;;;9.50;;
6689;SDS011;3382;51.576;8.076;2023-04-21T13:08:52;12.77;;;9.87;;
6689;SDS011;3382;51.576;8.076;2023-04-21T13:11:17;17.73;;;7.57;;
6689;SDS011;3382;51.576;8.076;2023-04-21T13:13:43;12.77;;;9.30;;
6689;SDS011;3382;51.576;8.076;2023-04-21T13:16:09;12.77;;;9.80;;
6689;SDS011;3382;51.576;8.076;2023-04-21T13:18:34;11.33;;;6.73;;
6689;SDS011;3382;51.576;8.076;2023-04-21T13:21:01;11.03;;;5.00;;
6689;SDS011;3382;51.576;8.076;2023-04-21T13:23:27;13.47;;;10.53;;
6689;SDS011;3382;51.576;8.076;2023-04-21T13:25:53;14.00;;;9.83;;
6689;SDS011;3382;51.576;8.076;2023-04-21T13:28:18;12.30;;;9.53;;
6689;SDS011;3382;51.576;8.076;2023-04-21T13:30:44;13.13;;;9.63;;
6689;SDS011;3382;51.576;8.076;2023-04-21T13:33:10;8.57;;;6.07;;
6689;SDS011;3382;51.576;8.076;2023-04-21T13:35:36;7.07;;;6.37;;
6689;SDS011;3382;51.576;8.076;2023-04-21T13:38:02;6.83;;;5.57;;
6689;SDS011;3382;51.576;8.076;2023-04-21T13:40:28;6.37;;;5.63;;
6689;SDS011;3382;51.576;8.076;2023-04-21T13:42:54;8.57;;;5.30;;
6689;SDS011;3382;51.576;8.076;2023-04-21T13:45:19;6.57;;;5.60;;
6689;SDS011;3382;51.576;8.076;2023-04-21T13:47:45;6.43;;;5.60;;
6689;SDS011;3382;51.576;8.076;2023-04-21T13:50:11;7.90;;;5.03;;
6689;SDS011;3382;51.576;8.076;2023-04-21T13:52:36;7.73;;;5.37;;
6689;SDS011;3382;51.576;8.076;2023-04-21T13:55:02;8.73;;;5.73;;
6689;SDS011;3382;51.576;8.076;2023-04-21T13:57:30;10.93;;;6.37;;
6689;SDS011;3382;51.576;8.076;2023-04-21T13:59:56;7.47;;;5.70;;
6689;SDS011;3382;51.576;8.076;2023-04-21T14:02:22;11.07;;;6.17;;
6689;SDS011;3382;51.576;8.076;2023-04-21T14:04:49;8.53;;;6.00;;
6689;SDS011;3382;51.576;8.076;2023-04-21T14:07:15;7.97;;;5.50;;
6689;SDS011;3382;51.576;8.076;2023-04-21T14:09:43;9.00;;;5.73;;
6689;SDS011;3382;51.576;8.076;2023-04-21T14:12:11;6.20;;;5.60;;
6689;SDS011;3382;51.576;8.076;2023-04-21T14:14:37;8.77;;;6.10;;
6689;SDS011;3382;51.576;8.076;2023-04-21T14:17:03;7.93;;;6.00;;
6689;SDS011;3382;51.576;8.076;2023-04-21T14:19:28;8.27;;;6.23;;
6689;SDS011;3382;51.576;8.076;2023-04-21T14:21:56;12.17;;;9.07;;
6689;SDS011;3382;51.576;8.076;2023-04-21T14:24:21;6.50;;;5.90;;
6689;SDS011;3382;51.576;8.076;2023-04-21T14:26:47;10.83;;;8.27;;
6689;SDS011;3382;51.576;8.076;2023-04-21T14:29:13;9.63;;;7.53;;
6689;SDS011;3382;51.576;8.076;2023-04-21T14:31:38;8.83;;;7.27;;
6689;SDS011;3382;51.576;8.076;2023-04-21T14:34:04;11.53;;;7.13;;
6689;SDS011;3382;51.576;8.076;2023-04-21T14:36:29;11.57;;;6.67;;
6689;SDS011;3382;51.576;8.076;2023-04-21T14:38:55;8.60;;;6.27;;
6689;SDS011;3382;51.576;8.076;2023-04-21T14:41:21;8.17;;;5.90;;
6689;SDS011;3382;51.576;8.076;2023-04-21T14:43:46;8.27;;;5.93;;
6689;SDS011;3382;51.576;8.076;2023-04-21T14:46:12;7.50;;;5.30;;
6689;SDS011;3382;51.576;8.076;2023-04-21T14:48:38;8.70;;;5.93;;
6689;SDS011;3382;51.576;8.076;2023-04-21T14:51:06;11.53;;;6.30;;
6689;SDS011;3382;51.576;8.076;2023-04-21T14:53:33;7.37;;;6.03;;
6689;SDS011;3382;51.576;8.076;2023-04-21T14:55:59;6.13;;;5.17;;
6689;SDS011;3382;51.576;8.076;2023-04-21T14:58:24;8.80;;;5.83;;
6689;SDS011;3382;51.576;8.076;2023-04-21T15:00:50;8.07;;;6.13;;
6689;SDS011;3382;51.576;8.076;2023-04-21T15:03:16;7.37;;;5.73;;
6689;SDS011;3382;51.576;8.076;2023-04-21T15:05:41;16.03;;;4.97;;
6689;SDS011;3382;51.576;8.076;2023-04-21T15:08:07;7.97;;;5.57;;
6689;SDS011;3382;51.576;8.076;2023-04-21T15:10:34;7.50;;;5.60;;
6689;SDS011;3382;51.576;8.076;2023-04-21T15:13:00;6.33;;;5.30;;
6689;SDS011;3382;51.576;8.076;2023-04-21T15:15:25;7.87;;;5.30;;
6689;SDS011;3382;51.576;8.076;2023-04-21T15:17:51;8.87;;;5.53;;
6689;SDS011;3382;51.576;8.076;2023-04-21T15:20:17;9.20;;;6.63;;